Milton, Washington
Current Conditions -  °F | °C
As of 9:28 PM on Saturday 20 Dec 2014 (Local Time) from KTCM Reporting Station
Light Rain Light Rain  
Wind Chill: 55°   Ceiling: 700
Heat Index: 55°   Visibility: 4mi
Dew Point: 55°   Wind: 15mph
Humidity: 100%   Direction: 220°SW
Pressure: 29.51"   Gusts: 24mph
Location:  47.25°N, 122.31°W
Report Text: KTCM 210528Z AUTO 22013G21KT 4SM -RA BR BKN007 BKN027 OVC034 13/13 A2951 RMK AO2 CIG 007V009
Loading
Personal Weather Stations






























Interactive Weather Map New forecast layout! Learn more

10-Day Weather Forecast

Advertisements
Track Severe Weather on mobile